createdAt,value
2023-04-09T00:09:00.883Z,5.4
2023-04-09T00:24:02.759Z,5.4
2023-04-09T00:39:04.506Z,3.6
2023-04-09T00:54:06.245Z,3.6
2023-04-09T01:09:07.954Z,1.8
2023-04-09T01:24:09.645Z,1.8
2023-04-09T01:39:11.432Z,1.8
2023-04-09T01:54:13.175Z,1.8
2023-04-09T02:09:14.888Z,0
2023-04-09T02:24:16.615Z,0
2023-04-09T02:39:18.420Z,0
2023-04-09T02:54:20.264Z,0
2023-04-09T03:09:22.022Z,0
2023-04-09T03:24:23.744Z,0
2023-04-09T03:39:25.466Z,0
2023-04-09T03:54:27.169Z,0
2023-04-09T04:09:28.902Z,0
2023-04-09T04:24:30.675Z,0
2023-04-09T04:39:32.440Z,0
2023-04-09T04:54:34.196Z,0
2023-04-09T05:09:35.973Z,0
2023-04-09T05:24:37.747Z,0
2023-04-09T05:39:39.474Z,0
2023-04-09T05:54:41.181Z,0
2023-04-09T06:09:42.904Z,0
2023-04-09T06:24:44.855Z,0
2023-04-09T06:39:58.235Z,0
2023-04-09T06:55:03.019Z,0
2023-04-09T07:10:04.779Z,0
2023-04-09T07:25:06.559Z,0
2023-04-09T07:40:08.247Z,0
2023-04-09T07:55:09.979Z,0
2023-04-09T08:10:11.762Z,0
2023-04-09T08:25:13.496Z,0
2023-04-09T08:40:15.246Z,0
2023-04-09T08:55:17.062Z,0
2023-04-09T09:10:18.833Z,0
2023-04-09T09:25:20.671Z,0
2023-04-09T09:40:22.403Z,0
2023-04-09T09:55:24.149Z,0
2023-04-09T10:10:25.860Z,0
2023-04-09T10:25:27.580Z,0
2023-04-09T10:40:29.326Z,0
2023-04-09T10:55:31.101Z,0
2023-04-09T11:10:32.828Z,0
2023-04-09T11:25:34.574Z,0
2023-04-09T11:40:36.364Z,0
2023-04-09T11:55:38.099Z,0
2023-04-09T12:10:39.899Z,0
2023-04-09T12:25:41.695Z,0
2023-04-09T12:40:43.427Z,0
2023-04-09T12:55:45.134Z,0
2023-04-09T13:10:46.912Z,0
2023-04-09T13:25:48.680Z,0
2023-04-09T13:40:50.414Z,1.8
2023-04-09T13:55:52.118Z,3.6
2023-04-09T14:10:53.865Z,3.6
2023-04-09T14:25:55.656Z,5.4
2023-04-09T14:40:57.437Z,7.2
2023-04-09T14:55:59.196Z,7.2
2023-04-09T15:11:00.935Z,12.6
2023-04-09T15:26:02.663Z,12.6
2023-04-09T15:41:04.398Z,10.8
2023-04-09T15:56:06.172Z,14.4
2023-04-09T16:11:07.910Z,16.2
2023-04-09T16:26:09.725Z,21.6
2023-04-09T16:41:11.450Z,19.8
2023-04-09T16:56:13.163Z,18
2023-04-09T17:11:14.891Z,19.8
2023-04-09T17:26:16.629Z,21.6
2023-04-09T17:41:18.356Z,18
2023-04-09T17:56:20.063Z,18
2023-04-09T18:11:21.786Z,21.6
2023-04-09T18:26:23.535Z,21.6
2023-04-09T18:41:25.332Z,19.8
2023-04-09T18:56:27.049Z,21.6
2023-04-09T19:11:28.805Z,19.8
2023-04-09T19:26:30.517Z,16.2
2023-04-09T19:41:32.276Z,14.4
2023-04-09T19:56:34.062Z,12.6
2023-04-09T20:11:35.848Z,10.8
2023-04-09T20:26:37.559Z,14.4
2023-04-09T20:41:39.248Z,10.8
2023-04-09T20:56:41.049Z,10.8
2023-04-09T21:11:42.811Z,12.6
2023-04-09T21:26:51.708Z,7.2
2023-04-09T21:41:54.105Z,7.2
2023-04-09T21:56:55.877Z,5.4
2023-04-09T22:11:57.722Z,5.4
2023-04-09T22:26:59.448Z,3.6
2023-04-09T22:42:01.164Z,5.4
2023-04-09T22:57:02.894Z,7.2
2023-04-09T23:12:04.616Z,7.2
2023-04-09T23:27:06.289Z,7.2
2023-04-09T23:42:08.027Z,7.2
2023-04-09T23:57:09.836Z,5.4
